createdAt,value
2017-04-27T00:01:13.417Z,16.89
2017-04-27T00:02:13.098Z,16.99
2017-04-27T00:03:13.034Z,16.99
2017-04-27T00:04:12.971Z,16.69
2017-04-27T00:05:12.906Z,16.6
2017-04-27T00:06:12.846Z,16.69
2017-04-27T00:07:12.780Z,16.99
2017-04-27T00:08:12.715Z,16.99
2017-04-27T00:09:12.661Z,16.89
2017-04-27T00:10:12.596Z,16.69
2017-04-27T00:11:12.529Z,16.97
2017-04-27T00:12:12.468Z,16.99
2017-04-27T00:13:12.406Z,16.99
2017-04-27T00:14:12.714Z,16.79
2017-04-27T00:15:12.279Z,16.97
2017-04-27T00:16:12.219Z,16.59
2017-04-27T00:17:12.154Z,16.59
2017-04-27T00:18:11.777Z,17.08
2017-04-27T00:19:12.026Z,16.89
2017-04-27T00:20:11.969Z,16.6
2017-04-27T00:21:11.899Z,16.89
2017-04-27T00:22:11.835Z,16.89
2017-04-27T00:23:11.775Z,16.6
2017-04-27T00:24:11.710Z,16.99
2017-04-27T00:25:11.651Z,16.88
2017-04-27T00:26:11.587Z,16.88
2017-04-27T00:27:11.521Z,16.99
2017-04-27T00:28:11.460Z,16.88
2017-04-27T00:29:11.151Z,16.59
2017-04-27T00:30:11.333Z,16.6
2017-04-27T00:31:11.641Z,16.89
2017-04-27T00:32:11.208Z,16.99
2017-04-27T00:33:10.838Z,16.89
2017-04-27T00:34:11.081Z,16.89
2017-04-27T00:35:11.025Z,16.88
2017-04-27T00:36:10.963Z,16.99
2017-04-27T00:37:10.894Z,16.99
2017-04-27T00:38:10.519Z,16.89
2017-04-27T00:39:10.767Z,16.6
2017-04-27T00:40:10.395Z,16.97
2017-04-27T00:41:10.641Z,16.89
2017-04-27T00:42:10.579Z,16.99
2017-04-27T00:43:10.518Z,16.89
2017-04-27T00:44:10.150Z,16.99
2017-04-27T00:45:10.391Z,17.08
2017-04-27T00:46:10.710Z,16.99
2017-04-27T00:47:09.956Z,16.99
2017-04-27T00:48:10.212Z,16.89
2017-04-27T00:49:09.826Z,16.97
2017-04-27T00:50:10.080Z,16.69
2017-04-27T00:51:10.012Z,16.99
2017-04-27T00:52:09.946Z,16.89
2017-04-27T00:53:09.885Z,16.89
2017-04-27T00:54:09.829Z,16.97
2017-04-27T00:55:09.759Z,16.99
2017-04-27T00:56:09.699Z,16.97
2017-04-27T00:57:09.634Z,16.99
2017-04-27T00:58:09.579Z,16.99
2017-04-27T00:59:09.509Z,16.89
2017-04-27T01:00:09.138Z,16.89
2017-04-27T01:01:09.383Z,16.89
2017-04-27T01:02:09.321Z,16.99
2017-04-27T01:03:09.255Z,16.99
2017-04-27T01:04:09.192Z,16.97
2017-04-27T01:05:09.140Z,17.08
2017-04-27T01:06:09.065Z,16.88
2017-04-27T01:07:09.002Z,16.99
2017-04-27T01:08:08.940Z,16.97
2017-04-27T01:09:08.880Z,16.88
2017-04-27T01:10:08.507Z,17.07
2017-04-27T01:11:08.753Z,17.07
2017-04-27T01:12:08.690Z,16.89
2017-04-27T01:13:08.882Z,16.79
2017-04-27T01:14:08.563Z,16.88
2017-04-27T01:15:08.506Z,16.99
2017-04-27T01:16:08.435Z,16.99
2017-04-27T01:17:08.371Z,16.88
2017-04-27T01:18:08.327Z,16.97
2017-04-27T01:19:08.248Z,16.88
2017-04-27T01:20:07.873Z,16.97
2017-04-27T01:21:08.119Z,16.89
2017-04-27T01:22:08.055Z,16.97
2017-04-27T01:23:07.996Z,17.07
2017-04-27T01:24:07.625Z,17.07
2017-04-27T01:25:07.871Z,16.69
2017-04-27T01:26:07.807Z,16.97
2017-04-27T01:27:07.742Z,16.89
2017-04-27T01:28:07.678Z,16.89
2017-04-27T01:29:07.617Z,16.88
2017-04-27T01:30:07.551Z,16.97
2017-04-27T01:31:07.492Z,16.97
2017-04-27T01:32:07.424Z,16.99
2017-04-27T01:33:07.748Z,16.78
2017-04-27T01:34:07.306Z,16.89
2017-04-27T01:35:07.242Z,16.99
2017-04-27T01:36:07.176Z,16.88
2017-04-27T01:37:07.113Z,16.88
2017-04-27T01:38:07.051Z,16.88
2017-04-27T01:39:06.985Z,17.07
2017-04-27T01:40:06.922Z,16.99
2017-04-27T01:41:06.859Z,16.88
2017-04-27T01:42:06.798Z,16.88
2017-04-27T01:43:06.739Z,16.99
2017-04-27T01:44:06.670Z,16.97
2017-04-27T01:45:06.608Z,17.07
2017-04-27T01:46:06.546Z,16.97
2017-04-27T01:47:06.483Z,17.07
2017-04-27T01:48:06.453Z,16.89
2017-04-27T01:49:06.354Z,16.97
2017-04-27T01:50:06.290Z,16.97
2017-04-27T01:51:06.229Z,16.88
2017-04-27T01:52:05.854Z,16.97
2017-04-27T01:53:06.109Z,16.88
2017-04-27T01:54:06.046Z,16.97
2017-04-27T01:55:05.668Z,16.88
2017-04-27T01:56:05.915Z,16.89
2017-04-27T01:57:05.852Z,16.88
2017-04-27T01:58:06.159Z,16.88
2017-04-27T01:59:05.723Z,16.88
2017-04-27T02:00:05.350Z,16.88
2017-04-27T02:01:05.628Z,16.78
2017-04-27T02:02:05.224Z,17.36
2017-04-27T02:03:05.473Z,17.36
2017-04-27T02:04:05.410Z,16.88
2017-04-27T02:05:05.035Z,16.88
2017-04-27T02:06:05.283Z,16.97
2017-04-27T02:07:05.221Z,17.36
2017-04-27T02:08:05.156Z,17.17
2017-04-27T02:09:05.093Z,17.27
2017-04-27T02:10:05.032Z,17.17
2017-04-27T02:11:04.967Z,17.27
2017-04-27T02:12:04.938Z,17.17
2017-04-27T02:13:04.840Z,17.27
2017-04-27T02:14:04.469Z,16.88
2017-04-27T02:15:04.716Z,17.36
2017-04-27T02:16:04.650Z,17.36
2017-04-27T02:17:04.599Z,17.17
2017-04-27T02:18:04.529Z,17.17
2017-04-27T02:19:04.463Z,17.55
2017-04-27T02:20:04.399Z,17.27
2017-04-27T02:21:04.335Z,17.46
2017-04-27T02:22:04.275Z,17.36
2017-04-27T02:23:04.211Z,17.36
2017-04-27T02:24:04.146Z,17.36
2017-04-27T02:25:04.092Z,17.46
2017-04-27T02:26:04.022Z,17.27
2017-04-27T02:27:03.960Z,17.36
2017-04-27T02:28:03.903Z,17.17
2017-04-27T02:29:03.523Z,17.36
2017-04-27T02:30:03.771Z,17.17
2017-04-27T02:31:03.706Z,17.17
2017-04-27T02:32:03.643Z,17.46
2017-04-27T02:33:03.584Z,17.55
2017-04-27T02:34:03.518Z,17.27
2017-04-27T02:35:03.603Z,17.17
2017-04-27T02:36:03.391Z,17.36
2017-04-27T02:37:03.327Z,17.17
2017-04-27T02:38:03.299Z,17.17
2017-04-27T02:39:03.202Z,17.17
2017-04-27T02:40:03.138Z,17.46
2017-04-27T02:41:03.072Z,17.17
2017-04-27T02:42:03.011Z,17.36
2017-04-27T02:43:02.948Z,17.17
2017-04-27T02:44:02.885Z,17.07
2017-04-27T02:45:02.823Z,17.17
2017-04-27T02:46:02.760Z,17.07
2017-04-27T02:47:02.697Z,17.55
2017-04-27T02:48:02.631Z,17.55
2017-04-27T02:49:02.568Z,17.17
2017-04-27T02:50:02.509Z,17.17
2017-04-27T02:51:02.444Z,17.07
2017-04-27T02:52:02.384Z,17.17
2017-04-27T02:53:02.321Z,17.17
2017-04-27T02:54:02.257Z,17.17
2017-04-27T02:55:02.189Z,17.07
2017-04-27T02:56:02.125Z,16.97
2017-04-27T02:57:02.061Z,17.07
2017-04-27T02:58:02.001Z,17.46
2017-04-27T02:59:01.631Z,17.65
2017-04-27T03:00:01.564Z,17.55
2017-04-27T03:01:01.815Z,17.27
2017-04-27T03:02:01.754Z,18.04
2017-04-27T03:03:01.687Z,18.13
2017-04-27T03:04:01.633Z,18.52
2017-04-27T03:05:01.565Z,18.13
2017-04-27T03:06:01.500Z,18.71
2017-04-27T03:07:01.435Z,18.71
2017-04-27T03:08:01.372Z,18.62
2017-04-27T03:09:01.311Z,18.71
2017-04-27T03:10:01.251Z,18.62
2017-04-27T03:11:01.182Z,18.62
2017-04-27T03:12:01.122Z,18.71
2017-04-27T03:13:01.058Z,19.1
2017-04-27T03:14:00.998Z,18.9
2017-04-27T03:15:00.928Z,19.1
2017-04-27T03:16:00.865Z,18.8
2017-04-27T03:17:00.811Z,19
2017-04-27T03:18:00.740Z,19
2017-04-27T03:19:00.680Z,18.9
2017-04-27T03:20:00.614Z,18.9
2017-04-27T03:21:00.553Z,19.2
2017-04-27T03:22:00.487Z,19.2
2017-04-27T03:23:00.425Z,19.2
2017-04-27T03:24:00.359Z,19.2
2017-04-27T03:25:00.300Z,19.38
2017-04-27T03:26:00.239Z,19.2
2017-04-27T03:26:59.863Z,19.29
2017-04-27T03:28:00.110Z,19
2017-04-27T03:29:00.048Z,19.2
2017-04-27T03:29:59.985Z,19
2017-04-27T03:30:59.928Z,19
2017-04-27T03:31:59.858Z,19
2017-04-27T03:32:59.795Z,19
2017-04-27T03:33:59.731Z,19
2017-04-27T03:34:59.671Z,19.2
2017-04-27T03:35:59.607Z,19.2
2017-04-27T03:36:59.540Z,19.1
2017-04-27T03:37:59.486Z,19.2
2017-04-27T03:38:59.417Z,19.1
2017-04-27T03:39:59.354Z,18.71
2017-04-27T03:40:59.288Z,18.62
2017-04-27T03:41:59.226Z,18.8
2017-04-27T03:42:59.161Z,18.9
2017-04-27T03:43:59.097Z,18.9
2017-04-27T03:44:59.035Z,18.8
2017-04-27T03:45:58.974Z,18.8
2017-04-27T03:46:58.908Z,18.9
2017-04-27T03:47:58.849Z,18.9
2017-04-27T03:48:58.785Z,18.8
2017-04-27T03:49:58.735Z,18.9
2017-04-27T03:50:58.657Z,18.8
2017-04-27T03:51:58.593Z,18.9
2017-04-27T03:52:58.530Z,19
2017-04-27T03:53:58.470Z,18.9
2017-04-27T03:54:58.405Z,19
2017-04-27T03:55:58.340Z,18.9
2017-04-27T03:56:58.652Z,19.1
2017-04-27T03:57:58.216Z,19.1
2017-04-27T03:58:58.154Z,19
2017-04-27T03:59:58.091Z,18.9
2017-04-27T04:00:58.026Z,19
2017-04-27T04:01:57.962Z,19.2
2017-04-27T04:02:57.903Z,19.1
2017-04-27T04:03:57.836Z,19
2017-04-27T04:04:57.777Z,19.1
2017-04-27T04:05:57.710Z,19
2017-04-27T04:06:57.645Z,19
2017-04-27T04:07:57.594Z,18.62
2017-04-27T04:08:57.527Z,18.52
2017-04-27T04:09:57.463Z,18.62
2017-04-27T04:10:57.394Z,18.62
2017-04-27T04:11:57.333Z,18.71
2017-04-27T04:12:57.271Z,18.62
2017-04-27T04:13:57.205Z,18.9
2017-04-27T04:14:57.143Z,18.62
2017-04-27T04:15:57.077Z,18.71
2017-04-27T04:16:57.015Z,18.62
2017-04-27T04:17:56.957Z,18.62
2017-04-27T04:18:56.891Z,18.62
2017-04-27T04:19:56.825Z,18.71
2017-04-27T04:20:56.758Z,18.52
2017-04-27T04:21:56.699Z,18.42
2017-04-27T04:22:56.640Z,18.42
2017-04-27T04:23:56.574Z,18.42
2017-04-27T04:24:56.514Z,18.32
2017-04-27T04:25:56.445Z,18.13
2017-04-27T04:26:56.415Z,18.13
2017-04-27T04:27:56.320Z,18.32
2017-04-27T04:28:56.257Z,18.23
2017-04-27T04:29:56.197Z,18.42
2017-04-27T04:30:56.135Z,18.13
2017-04-27T04:31:56.066Z,18.32
2017-04-27T04:32:56.013Z,18.23
2017-04-27T04:33:55.942Z,18.23
2017-04-27T04:34:55.876Z,18.13
2017-04-27T04:35:55.817Z,18.13
2017-04-27T04:36:55.752Z,18.23
2017-04-27T04:37:55.690Z,18.13
2017-04-27T04:38:55.627Z,18.13
2017-04-27T04:39:55.565Z,18.04
2017-04-27T04:40:55.508Z,18.13
2017-04-27T04:41:55.431Z,18.04
2017-04-27T04:42:55.372Z,18.04
2017-04-27T04:43:55.318Z,18.23
2017-04-27T04:44:55.246Z,18.04
2017-04-27T04:45:55.187Z,18.04
2017-04-27T04:46:55.120Z,18.13
2017-04-27T04:47:55.071Z,18.04
2017-04-27T04:48:54.993Z,18.04
2017-04-27T04:49:54.934Z,18.04
2017-04-27T04:50:54.867Z,18.04
2017-04-27T04:51:54.804Z,18.04
2017-04-27T04:52:54.744Z,18.13
2017-04-27T04:53:54.678Z,18.04
2017-04-27T04:54:54.616Z,18.04
2017-04-27T04:55:54.551Z,18.04
2017-04-27T04:56:54.489Z,18.04
2017-04-27T04:57:54.423Z,18.04
2017-04-27T04:58:54.364Z,18.23
2017-04-27T04:59:54.300Z,18.04
2017-04-27T05:00:54.237Z,18.13
2017-04-27T05:01:54.171Z,18.04
2017-04-27T05:02:54.111Z,18.04
2017-04-27T05:03:54.050Z,18.13
2017-04-27T05:04:53.981Z,18.04
2017-04-27T05:05:53.920Z,18.13
2017-04-27T05:06:53.856Z,18.13
2017-04-27T05:07:53.793Z,18.04
2017-04-27T05:08:53.730Z,18.13
2017-04-27T05:09:53.676Z,18.13
2017-04-27T05:10:53.752Z,18.23
2017-04-27T05:11:53.537Z,18.13
2017-04-27T05:12:53.476Z,18.32
2017-04-27T05:13:53.439Z,18.32
2017-04-27T05:14:53.348Z,18.13
2017-04-27T05:15:53.285Z,18.13
2017-04-27T05:16:52.914Z,18.13
2017-04-27T05:17:53.159Z,18.23
2017-04-27T05:18:53.095Z,18.04
2017-04-27T05:19:53.034Z,18.13
2017-04-27T05:20:52.971Z,18.04
2017-04-27T05:21:52.906Z,18.04
2017-04-27T05:22:52.841Z,18.13
2017-04-27T05:23:52.778Z,18.04
2017-04-27T05:24:52.715Z,18.13
2017-04-27T05:25:52.652Z,18.13
2017-04-27T05:26:52.589Z,18.04
2017-04-27T05:27:52.525Z,18.04
2017-04-27T05:28:52.462Z,18.13
2017-04-27T05:29:52.399Z,18.13
2017-04-27T05:30:52.334Z,18.32
2017-04-27T05:31:52.275Z,18.23
2017-04-27T05:32:52.215Z,18.23
2017-04-27T05:33:52.159Z,18.23
2017-04-27T05:34:52.086Z,18.32
2017-04-27T05:35:52.022Z,18.42
2017-04-27T05:36:51.956Z,18.13
2017-04-27T05:37:52.262Z,18.23
2017-04-27T05:38:51.835Z,18.13
2017-04-27T05:39:51.767Z,18.23
2017-04-27T05:40:51.705Z,18.32
2017-04-27T05:41:51.640Z,18.13
2017-04-27T05:42:51.578Z,18.13
2017-04-27T05:43:51.517Z,17.94
2017-04-27T05:44:51.447Z,17.94
2017-04-27T05:45:51.386Z,18.04
2017-04-27T05:46:51.328Z,18.04
2017-04-27T05:47:51.263Z,18.13
2017-04-27T05:48:51.570Z,18.13
2017-04-27T05:49:51.146Z,18.13
2017-04-27T05:50:50.761Z,18.23
2017-04-27T05:51:51.009Z,18.23
2017-04-27T05:52:50.949Z,18.42
2017-04-27T05:53:50.883Z,18.23
2017-04-27T05:54:50.820Z,18.32
2017-04-27T05:55:50.755Z,18.42
2017-04-27T05:56:50.692Z,18.42
2017-04-27T05:57:50.631Z,18.42
2017-04-27T05:58:50.567Z,18.32
2017-04-27T05:59:50.500Z,18.42
2017-04-27T06:00:50.439Z,18.52
2017-04-27T06:01:50.373Z,18.13
2017-04-27T06:02:50.312Z,18.32
2017-04-27T06:03:50.251Z,18.13
2017-04-27T06:04:50.187Z,18.32
2017-04-27T06:05:50.123Z,18.23
2017-04-27T06:06:50.063Z,18.71
2017-04-27T06:07:50.000Z,18.52
2017-04-27T06:08:49.934Z,18.71
2017-04-27T06:09:49.869Z,18.42
2017-04-27T06:10:49.809Z,18.42
2017-04-27T06:11:49.742Z,18.23
2017-04-27T06:12:49.681Z,18.32
2017-04-27T06:13:49.622Z,18.42
2017-04-27T06:14:49.555Z,18.42
2017-04-27T06:15:49.490Z,18.71
2017-04-27T06:16:49.426Z,18.52
2017-04-27T06:17:49.362Z,18.52
2017-04-27T06:18:49.298Z,18.52
2017-04-27T06:19:49.239Z,18.62
2017-04-27T06:20:49.173Z,18.62
2017-04-27T06:21:49.110Z,18.71
2017-04-27T06:22:49.053Z,18.62
2017-04-27T06:23:48.984Z,18.62
2017-04-27T06:24:48.921Z,18.62
2017-04-27T06:25:48.856Z,18.62
2017-04-27T06:26:48.790Z,18.52
2017-04-27T06:27:48.733Z,18.62
2017-04-27T06:28:48.666Z,18.62
2017-04-27T06:29:48.603Z,18.62
2017-04-27T06:30:48.540Z,18.62
2017-04-27T06:31:48.477Z,18.62
2017-04-27T06:32:48.614Z,18.62
2017-04-27T06:33:48.495Z,18.62
2017-04-27T06:34:48.401Z,18.71
2017-04-27T06:35:48.355Z,18.62
2017-04-27T06:36:48.163Z,18.62
2017-04-27T06:37:48.095Z,18.62
2017-04-27T06:38:48.033Z,18.62
2017-04-27T06:39:47.971Z,18.71
2017-04-27T06:40:47.911Z,18.71
2017-04-27T06:41:47.842Z,18.71
2017-04-27T06:42:47.779Z,18.62
2017-04-27T06:43:47.715Z,18.62
2017-04-27T06:44:47.655Z,18.62
2017-04-27T06:45:47.591Z,18.8
2017-04-27T06:46:47.527Z,18.62
2017-04-27T06:47:47.156Z,18.71
2017-04-27T06:48:47.401Z,18.62
2017-04-27T06:49:47.342Z,18.62
2017-04-27T06:50:47.274Z,18.71
2017-04-27T06:51:47.211Z,18.71
2017-04-27T06:52:47.148Z,18.71
2017-04-27T06:53:47.087Z,18.71
2017-04-27T06:54:47.020Z,18.71
2017-04-27T06:55:46.958Z,18.71
2017-04-27T06:56:46.895Z,18.8
2017-04-27T06:57:46.832Z,18.8
2017-04-27T06:58:46.773Z,18.62
2017-04-27T06:59:46.706Z,18.8
2017-04-27T07:00:46.643Z,18.8
2017-04-27T07:01:46.576Z,18.71
2017-04-27T07:02:46.514Z,18.8
2017-04-27T07:03:46.451Z,18.8
2017-04-27T07:04:46.389Z,18.71
2017-04-27T07:05:46.240Z,18.71
2017-04-27T07:06:45.952Z,18.71
2017-04-27T07:07:46.236Z,18.62
2017-04-27T07:08:46.136Z,18.62
2017-04-27T07:09:45.988Z,18.62
2017-04-27T07:10:46.232Z,18.71
2017-04-27T07:11:45.956Z,18.71
2017-04-27T07:12:45.891Z,18.62
2017-04-27T07:13:45.826Z,18.62
2017-04-27T07:14:45.763Z,18.62
2017-04-27T07:16:45.641Z,18.62
2017-04-27T07:17:45.574Z,18.71
2017-04-27T07:18:45.506Z,18.42
2017-04-27T07:19:45.438Z,18.23
2017-04-27T07:20:45.374Z,18.23
2017-04-27T07:21:45.312Z,18.04
2017-04-27T07:22:45.249Z,18.13
2017-04-27T07:23:45.183Z,18.23
2017-04-27T07:24:45.124Z,18.32
2017-04-27T07:25:45.063Z,18.32
2017-04-27T07:26:44.995Z,18.23
2017-04-27T07:27:44.940Z,18.32
2017-04-27T07:28:44.870Z,18.23
2017-04-27T07:29:44.808Z,18.23
2017-04-27T07:30:44.745Z,18.32
2017-04-27T07:31:44.704Z,18.32
2017-04-27T07:32:44.620Z,18.52
2017-04-27T07:33:44.567Z,18.52
2017-04-27T07:34:44.491Z,18.42
2017-04-27T07:35:44.428Z,18.42
2017-04-27T07:36:44.366Z,18.52
2017-04-27T07:37:44.297Z,18.32
2017-04-27T07:38:44.260Z,18.52
2017-04-27T07:39:44.174Z,18.62
2017-04-27T07:40:44.112Z,18.42
2017-04-27T07:41:44.043Z,18.52
2017-04-27T07:42:43.985Z,18.62
2017-04-27T07:43:43.927Z,18.71
2017-04-27T07:44:43.857Z,18.62
2017-04-27T07:45:43.793Z,18.62
2017-04-27T07:46:43.430Z,18.62
2017-04-27T07:47:43.675Z,18.71
2017-04-27T07:48:43.599Z,18.42
2017-04-27T07:49:43.542Z,18.42
2017-04-27T07:50:43.580Z,18.42
2017-04-27T07:51:43.409Z,18.42
2017-04-27T07:52:43.372Z,18.13
2017-04-27T07:53:43.286Z,18.62
2017-04-27T07:54:43.290Z,18.23
2017-04-27T07:55:43.458Z,18.52
2017-04-27T07:56:43.120Z,18.52
2017-04-27T07:57:43.031Z,18.62
2017-04-27T07:58:42.970Z,18.52
2017-04-27T07:59:42.906Z,18.13
2017-04-27T08:00:42.845Z,18.13
2017-04-27T08:01:42.782Z,18.13
2017-04-27T08:02:42.756Z,18.04
2017-04-27T08:03:42.654Z,18.13
2017-04-27T08:04:42.314Z,18.23
2017-04-27T08:05:42.532Z,18.13
2017-04-27T08:06:42.463Z,18.23
2017-04-27T08:07:42.410Z,18.23
2017-04-27T08:08:42.339Z,18.13
2017-04-27T08:09:42.274Z,18.23
2017-04-27T08:10:41.900Z,18.04
2017-04-27T08:11:42.169Z,18.04
2017-04-27T08:12:42.091Z,18.04
2017-04-27T08:13:42.024Z,18.04
2017-04-27T08:14:41.956Z,18.23
2017-04-27T08:15:41.675Z,18.04
2017-04-27T08:16:41.861Z,17.94
2017-04-27T08:17:41.773Z,18.04
2017-04-27T08:18:41.703Z,18.13
2017-04-27T08:19:41.647Z,18.13
2017-04-27T08:20:41.582Z,18.04
2017-04-27T08:21:41.516Z,17.94
2017-04-27T08:22:41.451Z,18.13
2017-04-27T08:23:41.391Z,18.04
2017-04-27T08:24:41.344Z,18.13
2017-04-27T08:25:41.263Z,18.04
2017-04-27T08:26:41.201Z,17.94
2017-04-27T08:27:41.133Z,18.23
2017-04-27T08:28:41.086Z,18.13
2017-04-27T08:29:41.159Z,18.13
2017-04-27T08:30:40.948Z,18.04
2017-04-27T08:31:40.884Z,18.13
2017-04-27T08:32:40.822Z,18.04
2017-04-27T08:33:40.452Z,18.04
2017-04-27T08:34:40.699Z,18.04
2017-04-27T08:35:40.628Z,18.32
2017-04-27T08:36:40.567Z,18.23
2017-04-27T08:37:40.503Z,17.94
2017-04-27T08:38:40.443Z,18.04
2017-04-27T08:39:40.386Z,18.04
2017-04-27T08:40:40.008Z,18.04
2017-04-27T08:41:39.939Z,18.04
2017-04-27T08:42:40.186Z,18.04
2017-04-27T08:43:40.125Z,17.94
2017-04-27T08:44:40.088Z,17.94
2017-04-27T08:45:39.998Z,18.04
2017-04-27T08:46:39.937Z,18.32
2017-04-27T08:47:39.559Z,18.04
2017-04-27T08:48:39.806Z,18.04
2017-04-27T08:49:39.747Z,18.13
2017-04-27T08:50:39.695Z,18.13
2017-04-27T08:51:39.616Z,18.04
2017-04-27T08:52:39.557Z,18.04
2017-04-27T08:53:39.492Z,18.23
2017-04-27T08:54:39.428Z,18.13
2017-04-27T08:55:39.365Z,18.13
2017-04-27T08:56:39.301Z,18.04
2017-04-27T08:57:39.240Z,18.23
2017-04-27T08:58:39.175Z,18.04
2017-04-27T08:59:39.116Z,17.84
2017-04-27T09:00:39.048Z,18.04
2017-04-27T09:01:38.984Z,17.94
2017-04-27T09:02:38.925Z,18.04
2017-04-27T09:03:38.859Z,18.04
2017-04-27T09:04:38.803Z,18.04
2017-04-27T09:05:38.731Z,18.23
2017-04-27T09:06:38.359Z,18.71
2017-04-27T09:07:38.298Z,18.23
2017-04-27T09:08:38.916Z,18.23
2017-04-27T09:09:38.478Z,18.62
2017-04-27T09:10:38.566Z,18.23
2017-04-27T09:11:38.352Z,18.23
2017-04-27T09:12:38.290Z,18.42
2017-04-27T09:13:38.233Z,18.32
2017-04-27T09:14:38.172Z,18.62
2017-04-27T09:15:38.199Z,18.52
2017-04-27T09:16:37.726Z,18.13
2017-04-27T09:17:37.976Z,18.23
2017-04-27T09:18:37.911Z,18.04
2017-04-27T09:19:37.849Z,18.04
2017-04-27T09:20:37.784Z,17.84
2017-04-27T09:21:37.722Z,18.04
2017-04-27T09:22:37.661Z,18.04
2017-04-27T09:23:37.285Z,18.23
2017-04-27T09:24:37.532Z,17.94
2017-04-27T09:25:37.470Z,18.04
2017-04-27T09:26:37.408Z,17.55
2017-04-27T09:27:37.032Z,17.75
2017-04-27T09:28:37.280Z,17.46
2017-04-27T09:29:37.217Z,17.84
2017-04-27T09:30:37.158Z,17.55
2017-04-27T09:31:37.093Z,17.75
2017-04-27T09:32:37.029Z,17.65
2017-04-27T09:33:36.961Z,17.75
2017-04-27T09:34:36.591Z,17.55
2017-04-27T09:35:36.991Z,17.75
2017-04-27T09:36:36.826Z,17.46
2017-04-27T09:37:36.743Z,17.36
2017-04-27T09:38:36.654Z,17.17
2017-04-27T09:39:36.628Z,17.65
2017-04-27T09:40:36.900Z,17.55
2017-04-27T09:41:36.461Z,17.36
2017-04-27T09:42:36.426Z,17.17
2017-04-27T09:43:36.333Z,17.55
2017-04-27T09:44:36.272Z,17.46
2017-04-27T09:45:36.209Z,17.55
2017-04-27T09:46:36.145Z,17.75
2017-04-27T09:47:36.082Z,17.75
2017-04-27T09:48:36.021Z,17.65
2017-04-27T09:49:35.956Z,17.55
2017-04-27T09:50:35.897Z,17.36
2017-04-27T09:51:35.829Z,17.37
2017-04-27T09:52:35.767Z,17.27
2017-04-27T09:53:36.133Z,17.18
2017-04-27T09:54:35.641Z,17.18
2017-04-27T09:55:35.593Z,17.55
2017-04-27T09:56:35.533Z,17.66
2017-04-27T09:57:35.456Z,18.23
2017-04-27T09:58:35.391Z,17.95
2017-04-27T09:59:35.014Z,17.66
2017-04-27T10:00:35.275Z,17.66
2017-04-27T10:01:35.199Z,17.36
2017-04-27T10:02:35.134Z,17.18
2017-04-27T10:03:35.074Z,17.47
2017-04-27T10:04:35.014Z,16.99
2017-04-27T10:05:34.955Z,17.08
2017-04-27T10:06:34.882Z,17.18
2017-04-27T10:07:34.819Z,17.08
2017-04-27T10:08:34.757Z,17.18
2017-04-27T10:09:34.694Z,17.36
2017-04-27T10:10:34.630Z,16.89
2017-04-27T10:11:34.569Z,16.89
2017-04-27T10:12:34.192Z,16.79
2017-04-27T10:13:34.450Z,16.69
2017-04-27T10:14:34.375Z,16.21
2017-04-27T10:15:34.006Z,17.08
2017-04-27T10:16:34.253Z,17.08
2017-04-27T10:17:34.191Z,16.99
2017-04-27T10:18:34.125Z,16.69
2017-04-27T10:19:34.062Z,16.6
2017-04-27T10:20:34.004Z,16.6
2017-04-27T10:21:33.642Z,16.02
2017-04-27T10:22:33.879Z,16.5
2017-04-27T10:23:33.814Z,16.41
2017-04-27T10:24:33.748Z,16.11
2017-04-27T10:25:33.686Z,16.01
2017-04-27T10:26:34.023Z,16.6
2017-04-27T10:27:33.560Z,16.11
2017-04-27T10:28:33.496Z,16.11
2017-04-27T10:29:33.434Z,16.31
2017-04-27T10:30:33.471Z,16.01
2017-04-27T10:31:33.309Z,15.92
2017-04-27T10:32:32.935Z,15.92
2017-04-27T10:33:33.181Z,15.92
2017-04-27T10:34:33.120Z,16.02
2017-04-27T10:35:33.207Z,16.02
2017-04-27T10:36:32.998Z,16.02
2017-04-27T10:37:32.931Z,15.92
2017-04-27T10:38:32.873Z,16.02
2017-04-27T10:39:32.803Z,16.02
2017-04-27T10:40:32.742Z,16.31
2017-04-27T10:41:32.679Z,16.41
2017-04-27T10:42:32.617Z,16.6
2017-04-27T10:43:32.552Z,16.79
2017-04-27T10:44:32.492Z,16.89
2017-04-27T10:45:32.801Z,16.21
2017-04-27T10:46:32.364Z,16.11
2017-04-27T10:47:32.300Z,16.21
2017-04-27T10:48:32.241Z,16.99
2017-04-27T10:49:32.176Z,16.99
2017-04-27T10:50:32.111Z,17.08
2017-04-27T10:51:32.047Z,16.99
2017-04-27T10:52:31.985Z,16.5
2017-04-27T10:53:31.924Z,16.5
2017-04-27T10:54:31.867Z,16.41
2017-04-27T10:55:31.796Z,16.02
2017-04-27T10:56:31.743Z,15.92
2017-04-27T10:57:31.672Z,15.73
2017-04-27T10:58:31.608Z,15.83
2017-04-27T10:59:31.545Z,15.63
2017-04-27T11:00:31.567Z,15.44
2017-04-27T11:01:31.421Z,15.73
2017-04-27T11:02:31.357Z,15.83
2017-04-27T11:03:31.296Z,16.11
2017-04-27T11:04:31.230Z,15.73
2017-04-27T11:05:31.319Z,15.92
2017-04-27T11:06:31.106Z,15.73
2017-04-27T11:07:31.043Z,15.83
2017-04-27T11:08:30.979Z,15.63
2017-04-27T11:09:30.916Z,15.63
2017-04-27T11:10:31.105Z,15.63
2017-04-27T11:11:30.793Z,15.73
2017-04-27T11:12:30.429Z,15.53
2017-04-27T11:13:30.675Z,15.15
2017-04-27T11:14:30.607Z,14.67
2017-04-27T11:15:30.549Z,14.86
2017-04-27T11:16:30.477Z,15.25
2017-04-27T11:17:30.413Z,14.86
2017-04-27T11:18:30.560Z,15.44
2017-04-27T11:19:30.288Z,15.05
2017-04-27T11:20:30.230Z,14.76
2017-04-27T11:21:30.166Z,15.25
2017-04-27T11:22:29.792Z,15.25
2017-04-27T11:23:31.904Z,14.76
2017-04-27T11:24:29.977Z,14.57
2017-04-27T11:25:30.114Z,14.38
2017-04-27T11:26:29.853Z,14.76
2017-04-27T11:27:29.794Z,14.86
2017-04-27T11:28:29.736Z,15.34
2017-04-27T11:29:29.895Z,15.25
2017-04-27T11:30:29.638Z,14.76
2017-04-27T11:31:29.738Z,14.57
2017-04-27T11:32:29.472Z,14.67
2017-04-27T11:33:29.411Z,14.38
2017-04-27T11:34:29.550Z,14.67
2017-04-27T11:35:29.283Z,14.57
2017-04-27T11:36:29.428Z,14.38
2017-04-27T11:37:29.366Z,15.15
2017-04-27T11:38:29.099Z,14.67
2017-04-27T11:39:29.237Z,15.05
2017-04-27T11:40:29.186Z,14.67
2017-04-27T11:41:29.108Z,14.67
2017-04-27T11:42:28.842Z,14.86
2017-04-27T11:43:28.781Z,14.47
2017-04-27T11:44:28.731Z,14.67
2017-04-27T11:45:28.344Z,14.38
2017-04-27T11:46:28.591Z,14.38
2017-04-27T11:47:28.773Z,14.76
2017-04-27T11:48:28.479Z,14.76
2017-04-27T11:49:28.404Z,14.38
2017-04-27T11:50:28.341Z,14.67
2017-04-27T11:51:28.278Z,14.57
2017-04-27T11:52:28.214Z,14.67
2017-04-27T11:53:28.148Z,14.67
2017-04-27T11:54:28.091Z,14.57
2017-04-27T11:55:28.027Z,14.67
2017-04-27T11:56:27.960Z,14.76
2017-04-27T11:57:27.904Z,14.67
2017-04-27T11:58:27.842Z,14.76
2017-04-27T11:59:27.777Z,14.67
2017-04-27T12:00:27.410Z,14.76
2017-04-27T12:01:27.339Z,14.38
2017-04-27T12:02:27.591Z,14.38
2017-04-27T12:03:27.524Z,14.38
2017-04-27T12:04:27.461Z,14.67
2017-04-27T12:05:27.399Z,14.38
2017-04-27T12:06:27.335Z,14.38
2017-04-27T12:07:27.272Z,14.76
2017-04-27T12:08:27.219Z,14.38
2017-04-27T12:09:27.176Z,14.47
2017-04-27T12:10:27.095Z,14.38
2017-04-27T12:11:27.021Z,14.67
2017-04-27T12:12:26.958Z,14.67
2017-04-27T12:13:26.895Z,14.47
2017-04-27T12:14:26.828Z,14.95
2017-04-27T12:15:26.771Z,14.86
2017-04-27T12:16:26.706Z,14.67
2017-04-27T12:17:26.645Z,14.57
2017-04-27T12:18:26.583Z,14.57
2017-04-27T12:19:26.518Z,14.67
2017-04-27T12:20:26.809Z,14.67
2017-04-27T12:21:26.408Z,14.67
2017-04-27T12:22:26.329Z,14.67
2017-04-27T12:23:25.960Z,14.47
2017-04-27T12:24:26.216Z,14.28
2017-04-27T12:25:25.936Z,14.57
2017-04-27T12:26:26.080Z,14.28
2017-04-27T12:27:26.016Z,14.28
2017-04-27T12:28:25.955Z,14.28
2017-04-27T12:29:26.258Z,14.28
2017-04-27T12:30:26.128Z,14.28
2017-04-27T12:31:25.764Z,14.38
2017-04-27T12:32:25.709Z,14.57
2017-04-27T12:33:25.640Z,14.38
2017-04-27T12:34:25.580Z,14.38
2017-04-27T12:35:25.515Z,14.67
2017-04-27T12:36:25.453Z,14.57
2017-04-27T12:37:25.388Z,14.76
2017-04-27T12:38:25.042Z,14.57
2017-04-27T12:39:25.277Z,14.57
2017-04-27T12:40:25.801Z,14.57
2017-04-27T12:41:25.137Z,14.38
2017-04-27T12:42:25.076Z,14.67
2017-04-27T12:43:25.401Z,14.57
2017-04-27T12:44:24.950Z,14.57
2017-04-27T12:45:24.888Z,14.67
2017-04-27T12:46:24.822Z,14.67
2017-04-27T12:47:24.764Z,14.67
2017-04-27T12:48:24.696Z,14.57
2017-04-27T12:49:24.637Z,14.57
2017-04-27T12:50:24.942Z,14.47
2017-04-27T12:51:24.510Z,14.38
2017-04-27T12:52:24.447Z,14.67
2017-04-27T12:53:24.381Z,14.47
2017-04-27T12:54:24.322Z,14.28
2017-04-27T12:55:24.257Z,14.18
2017-04-27T12:56:24.196Z,14.38